Airfield :
LOGIN :

Register | Disclaimer

   EN    FR    IT 

 










Legend :    VFR   Marginal VFR   IFR   Intensive IFR   Very Intensive IFR
Visi :
Ceiling :
>= 8 km
>= 3000ft
5 to 8 km
1000 to 3000 ft
1500m to 5 km
500 to 1000 ft
800 to 1500m
200 to 500 ft
< 800m
< 200 ft
Symbols :   Thunderstorms  Fog  Heavy snow  Heavy precipitations  Wind > 20 kt
SIGMETs :     Misc.  Thunderstorms  Icing  Turbulence  Mountain Waves  Volcanic Ashes






- Airport Elevation : 284 ft


EGUW - RAF Wattisham

CURRENT METAR :
  • 200850Z 19011KT 9999 FEW030 SCT090 13/11 Q1002 BECMG BKN007 RMK BLU BECMG GRN

EXPIRED METARs :
  • 200820Z 19011KT 9999 FEW038 SCT090 13/11 Q1002 BECMG BKN007 RMK BLU BECMG GRN
  • 200750Z 18011KT 9999 NIL FEW045 BKN080 BKN250 13/11 Q1001 BECMG BKN007 RMK BLU BECMG GRN
  • 200720Z 18010KT 9999 FEW045 SCT060 BKN080 12/11 Q1001 BECMG BKN007 RMK BLU BECMG GRN
  • 200650Z 18012KT CAVOK 12/11 Q1001 RERA BECMG BKN007 RMK BLU BECMG GRN

TAF TAF EGUW
Valid from the 20 at 09:00 until the 20 at 18:00 UTC


200737Z 2009/2018 19012KT 9999 BKN030
BECMG 2009/2010 BKN007
TEMPO 2009/2012 5000 -RADZ
BECMG 2012/2014 FEW018
PROB30
TEMPO 2012/2018 21015G25KT



MET'MAP, your aeronautical weather chart ! - Copyright ORBIFLY December 2007 - Disclaimer

ORBIFLY MET'MAP TEAM :

Programming & Development : Alexandra Zaïnal
Concept & original design : Baudouin d'Aumeries
Assistance for programming : Marc-Olivier Méhu
Technical & hardware support : Manuel Goepfert

Contact : metmap@orbifly.com




SOURCES & CREDITS :

   NOAA